Armony — 5IM517 — position and weather

sailwx.info

Track history (hours):
 
Tides and Currents Weather Stations Pressure Air Temp Water Temp Dewpoint Dewpoint Depression Visibility Wind Speed Wind Dir Waves Ship Positions

Armony

Last reported at 2017-Apr-09 20:48 UTC. Time now 2017-Apr-24 13:06 UTC.
Position N 40°59' E 028°60'.
Warning: this ship's position is 14 days out of date.

Length 70 m; draft 3.5 m.

Type: Ship. MMSI: 677041700.

Date/timePositionNaut miles runAvg speedWind from/ knotsBaromVisibWave heightAir tempDewpointWater temp
2017-Apr-09 20:48N 40°59' E 028°60'2 5.5
2017-Apr-09 20:23N 40°56' E 028°60'3 7.0
2017-Apr-09 19:57N 40°54' E 029°01'4 7.7
2017-Apr-09 19:27N 40°51' E 029°04'3 7.3
2017-Apr-09 19:00N 40°50' E 029°08'3 5.4
2017-Apr-09 18:30N 40°52' E 029°10'0 0.2
2017-Apr-09 17:58N 40°52' E 029°10'3 0.1
2017-Apr-08 20:41N 40°50' E 029°08'2 8.8
2017-Apr-08 20:30N 40°49' E 029°07'510.1
2017-Apr-08 20:00N 40°49' E 029°00'  
Track history (hours):
 
Tides and Currents Weather Stations Pressure Air Temp Water Temp Dewpoint Dewpoint Depression Visibility Wind Speed Wind Dir Waves Ship Positions

Armony

Last reported at 2017-Apr-09 20:48 UTC. Time now 2017-Apr-24 13:06 UTC.
Position N 40°59' E 028°60'.
Warning: this ship's position is 14 days out of date.

Length 70 m; draft 3.5 m.

Type: Ship. MMSI: 677041700.

Date/timePositionNaut miles runAvg speedWind from/ knotsBaromVisibWave heightAir tempDewpointWater temp
2017-Apr-09 20:48N 40°59' E 028°60'2 5.5
2017-Apr-09 20:23N 40°56' E 028°60'3 7.0
2017-Apr-09 19:57N 40°54' E 029°01'4 7.7
2017-Apr-09 19:27N 40°51' E 029°04'3 7.3
2017-Apr-09 19:00N 40°50' E 029°08'3 5.4
2017-Apr-09 18:30N 40°52' E 029°10'0 0.2
2017-Apr-09 17:58N 40°52' E 029°10'3 0.1
2017-Apr-08 20:41N 40°50' E 029°08'2 8.8
2017-Apr-08 20:30N 40°49' E 029°07'510.1
2017-Apr-08 20:00N 40°49' E 029°00'  

Dump ship's entire track history